createdAt,value
2017-11-15T00:01:55.739Z,9.60
2017-11-15T00:04:24.491Z,9.60
2017-11-15T00:06:52.635Z,9.50
2017-11-15T00:09:20.762Z,9.50
2017-11-15T00:11:48.951Z,9.50
2017-11-15T00:14:17.081Z,9.50
2017-11-15T00:16:45.223Z,9.40
2017-11-15T00:19:13.778Z,9.50
2017-11-15T00:21:42.668Z,9.40
2017-11-15T00:24:11.535Z,9.50
2017-11-15T00:26:39.646Z,9.50
2017-11-15T00:29:07.758Z,9.50
2017-11-15T00:31:35.870Z,9.50
2017-11-15T00:34:04.074Z,9.50
2017-11-15T00:36:32.497Z,9.50
2017-11-15T00:39:00.670Z,9.50
2017-11-15T00:41:30.275Z,9.60
2017-11-15T00:43:58.787Z,9.60
2017-11-15T00:46:27.644Z,9.50
2017-11-15T00:48:55.767Z,9.60
2017-11-15T00:51:23.891Z,9.50
2017-11-15T00:53:53.142Z,9.50
2017-11-15T00:56:21.270Z,9.50
2017-11-15T00:58:49.391Z,9.50
2017-11-15T01:01:17.519Z,9.60
2017-11-15T01:03:45.668Z,9.60
2017-11-15T01:06:14.338Z,9.60
2017-11-15T01:08:42.543Z,9.60
2017-11-15T01:11:10.680Z,9.60
2017-11-15T01:13:38.796Z,9.60
2017-11-15T01:16:06.924Z,9.60
2017-11-15T01:18:35.059Z,9.60
2017-11-15T01:21:03.185Z,9.70
2017-11-15T01:23:31.297Z,9.60
2017-11-15T01:25:59.911Z,9.70
2017-11-15T01:28:28.780Z,9.60
2017-11-15T01:30:56.923Z,9.60
2017-11-15T01:33:25.063Z,9.60
2017-11-15T01:35:53.191Z,9.60
2017-11-15T01:38:21.654Z,9.60
2017-11-15T01:40:49.829Z,9.60
2017-11-15T01:43:18.454Z,9.70
2017-11-15T01:45:47.326Z,9.30
2017-11-15T01:48:15.519Z,9.70
2017-11-15T01:50:43.667Z,9.70
2017-11-15T01:53:11.799Z,9.70
2017-11-15T01:55:41.318Z,9.60
2017-11-15T01:58:09.513Z,9.80
2017-11-15T02:00:51.338Z,9.80
2017-11-15T02:03:20.260Z,9.70
2017-11-15T02:05:48.426Z,9.70
2017-11-15T02:08:16.582Z,9.70
2017-11-15T02:10:45.778Z,9.70
2017-11-15T02:13:13.943Z,9.70
2017-11-15T02:15:42.077Z,9.60
2017-11-15T02:18:10.227Z,9.70
2017-11-15T02:20:38.428Z,9.80
2017-11-15T02:23:06.635Z,9.80
2017-11-15T02:25:34.826Z,9.70
2017-11-15T02:28:03.046Z,9.60
2017-11-15T02:30:31.609Z,9.70
2017-11-15T02:32:59.869Z,9.80
2017-11-15T02:35:28.076Z,9.80
2017-11-15T02:37:56.262Z,9.80
2017-11-15T02:40:24.743Z,9.70
2017-11-15T02:42:52.986Z,9.60
2017-11-15T02:45:21.202Z,9.70
2017-11-15T02:47:49.412Z,9.70
2017-11-15T02:50:18.815Z,9.70
2017-11-15T02:52:46.964Z,9.70
2017-11-15T02:55:15.207Z,9.70
2017-11-15T02:57:43.406Z,9.70
2017-11-15T03:00:11.584Z,9.70
2017-11-15T03:02:39.706Z,9.70
2017-11-15T03:05:07.883Z,9.70
2017-11-15T03:07:36.020Z,9.60
2017-11-15T03:10:04.213Z,9.60
2017-11-15T03:12:32.742Z,9.60
2017-11-15T03:15:00.963Z,9.60
2017-11-15T03:17:29.118Z,9.60
2017-11-15T03:19:57.318Z,9.70
2017-11-15T03:22:25.482Z,9.60
2017-11-15T03:24:53.639Z,9.60
2017-11-15T03:27:21.767Z,9.60
2017-11-15T03:29:49.931Z,9.60
2017-11-15T03:32:18.075Z,9.60
2017-11-15T03:34:46.959Z,9.60
2017-11-15T03:37:15.071Z,9.60
2017-11-15T03:39:43.514Z,9.70
2017-11-15T03:42:12.235Z,9.60
2017-11-15T03:44:40.386Z,9.60
2017-11-15T03:47:08.515Z,9.60
2017-11-15T03:49:36.699Z,9.60
2017-11-15T03:52:04.810Z,9.60
2017-11-15T03:54:33.659Z,9.60
2017-11-15T03:57:01.882Z,9.60
2017-11-15T03:59:29.987Z,9.50
2017-11-15T04:01:58.101Z,9.60
2017-11-15T04:04:26.587Z,9.50
2017-11-15T04:06:54.716Z,9.60
2017-11-15T04:09:22.858Z,9.50
2017-11-15T04:11:50.988Z,9.50
2017-11-15T04:14:19.103Z,9.50
2017-11-15T04:16:47.979Z,9.50
2017-11-15T04:19:16.098Z,9.60
2017-11-15T04:21:44.202Z,9.60
2017-11-15T04:24:12.322Z,9.60
2017-11-15T04:26:40.518Z,9.60
2017-11-15T04:29:08.952Z,9.60
2017-11-15T04:31:37.187Z,9.60
2017-11-15T04:34:05.435Z,9.60
2017-11-15T04:36:33.555Z,9.60
2017-11-15T04:39:01.744Z,9.60
2017-11-15T04:41:29.898Z,9.60
2017-11-15T04:43:58.659Z,9.60
2017-11-15T04:46:26.831Z,9.60
2017-11-15T04:48:55.704Z,9.50
2017-11-15T04:51:23.830Z,9.40
2017-11-15T04:53:51.959Z,9.50
2017-11-15T04:56:20.087Z,9.50
2017-11-15T04:58:48.215Z,9.60
2017-11-15T05:01:16.332Z,9.50
2017-11-15T05:03:44.467Z,9.50
2017-11-15T05:06:12.906Z,9.50
2017-11-15T05:08:41.764Z,9.50
2017-11-15T05:11:09.887Z,9.50
2017-11-15T05:13:38.019Z,9.50
2017-11-15T05:16:07.082Z,9.60
2017-11-15T05:18:35.230Z,9.60
2017-11-15T05:21:03.528Z,9.70
2017-11-15T05:23:31.738Z,9.70
2017-11-15T05:25:59.863Z,9.70
2017-11-15T05:28:28.032Z,9.70
2017-11-15T05:30:56.502Z,9.70
2017-11-15T05:33:25.396Z,9.70
2017-11-15T05:35:54.249Z,9.80
2017-11-15T05:38:22.346Z,9.90
2017-11-15T05:40:51.194Z,9.90
2017-11-15T05:43:19.298Z,9.90
2017-11-15T05:45:47.949Z,9.90
2017-11-15T05:48:16.226Z,9.90
2017-11-15T05:50:44.346Z,9.90
2017-11-15T05:53:13.271Z,9.90
2017-11-15T05:55:41.711Z,9.90
2017-11-15T05:58:09.822Z,9.80
2017-11-15T06:00:37.984Z,9.80
2017-11-15T06:03:06.097Z,9.90
2017-11-15T06:05:34.219Z,9.90
2017-11-15T06:08:03.092Z,9.90
2017-11-15T06:10:31.325Z,10.00
2017-11-15T06:12:59.761Z,9.90
2017-11-15T06:15:27.850Z,9.90
2017-11-15T06:17:55.994Z,10.00
2017-11-15T06:20:24.114Z,10.00
2017-11-15T06:22:52.360Z,10.10
2017-11-15T06:25:20.438Z,10.10
2017-11-15T06:27:49.355Z,10.10
2017-11-15T06:30:18.662Z,10.10
2017-11-15T06:32:46.812Z,10.00
2017-11-15T06:35:14.895Z,10.10
2017-11-15T06:37:43.028Z,10.10
2017-11-15T06:40:11.149Z,10.20
2017-11-15T06:42:39.334Z,10.20
2017-11-15T06:45:08.194Z,10.10
2017-11-15T06:47:36.379Z,10.00
2017-11-15T06:50:04.818Z,10.00
2017-11-15T06:52:32.949Z,10.10
2017-11-15T06:55:01.090Z,10.10
2017-11-15T06:57:29.516Z,10.10
2017-11-15T06:59:57.995Z,10.20
2017-11-15T07:02:26.125Z,10.00
2017-11-15T07:04:54.232Z,10.10
2017-11-15T07:07:22.396Z,10.10
2017-11-15T07:09:50.494Z,10.20
2017-11-15T07:12:18.622Z,10.30
2017-11-15T07:14:46.776Z,10.30
2017-11-15T07:17:16.230Z,10.30
2017-11-15T07:19:44.379Z,10.20
2017-11-15T07:22:12.490Z,10.20
2017-11-15T07:24:40.592Z,10.40
2017-11-15T07:27:08.710Z,10.40
2017-11-15T07:29:36.831Z,10.40
2017-11-15T07:32:04.963Z,10.40
2017-11-15T07:34:33.084Z,10.40
2017-11-15T07:37:02.293Z,10.40
2017-11-15T07:39:31.206Z,10.40
2017-11-15T07:41:59.337Z,10.40
2017-11-15T07:44:28.959Z,10.50
2017-11-15T07:46:57.795Z,10.50
2017-11-15T07:49:25.991Z,10.50
2017-11-15T07:51:54.103Z,10.60
2017-11-15T07:54:22.234Z,10.50
2017-11-15T07:56:50.347Z,10.50
2017-11-15T07:59:19.202Z,10.50
2017-11-15T08:01:47.723Z,10.60
2017-11-15T08:04:16.767Z,10.60
2017-11-15T08:06:44.894Z,10.70
2017-11-15T08:09:13.731Z,10.80
2017-11-15T08:11:41.839Z,10.80
2017-11-15T08:14:09.959Z,10.80
2017-11-15T08:16:38.067Z,10.80
2017-11-15T08:19:06.182Z,10.80
2017-11-15T08:21:34.410Z,10.80
2017-11-15T08:24:02.542Z,10.90
2017-11-15T08:26:31.071Z,10.90
2017-11-15T08:28:59.492Z,10.90
2017-11-15T08:31:27.604Z,10.90
2017-11-15T08:33:55.707Z,10.90
2017-11-15T08:36:23.824Z,10.90
2017-11-15T08:38:51.943Z,10.90
2017-11-15T08:41:20.099Z,10.90
2017-11-15T08:43:48.221Z,10.90
2017-11-15T08:46:17.587Z,10.90
2017-11-15T08:48:45.754Z,10.90
2017-11-15T08:51:13.990Z,10.90
2017-11-15T08:53:42.170Z,10.90
2017-11-15T08:56:10.292Z,11.00
2017-11-15T08:58:38.438Z,11.00
2017-11-15T09:01:06.616Z,11.10
2017-11-15T09:03:34.762Z,11.10
2017-11-15T09:06:03.346Z,11.20
2017-11-15T09:08:31.461Z,11.10
2017-11-15T09:10:59.567Z,11.10
2017-11-15T09:13:28.419Z,11.20
2017-11-15T09:15:56.515Z,11.10
2017-11-15T09:18:26.128Z,11.30
2017-11-15T09:20:55.007Z,11.20
2017-11-15T09:23:23.115Z,11.20
2017-11-15T09:25:51.982Z,11.20
2017-11-15T09:28:20.095Z,11.20
2017-11-15T09:30:50.173Z,11.20
2017-11-15T09:33:18.296Z,11.20
2017-11-15T09:35:46.399Z,11.20
2017-11-15T09:38:14.519Z,11.20
2017-11-15T09:40:42.635Z,11.30
2017-11-15T09:43:10.766Z,11.20
2017-11-15T09:45:39.191Z,11.10
2017-11-15T09:48:07.304Z,11.20
2017-11-15T09:50:36.219Z,11.20
2017-11-15T09:53:04.925Z,11.30
2017-11-15T09:55:33.054Z,11.40
2017-11-15T09:58:01.157Z,11.40
2017-11-15T10:00:29.590Z,11.30
2017-11-15T10:02:57.727Z,11.20
2017-11-15T10:05:25.884Z,11.30
2017-11-15T10:07:54.007Z,11.40
2017-11-15T10:10:23.223Z,11.50
2017-11-15T10:12:52.099Z,11.50
2017-11-15T10:15:20.236Z,11.50
2017-11-15T10:17:48.367Z,11.60
2017-11-15T10:20:16.466Z,11.60
2017-11-15T10:22:44.795Z,11.50
2017-11-15T10:25:12.911Z,11.50
2017-11-15T10:27:41.046Z,11.60
2017-11-15T10:30:09.200Z,11.40
2017-11-15T10:32:37.304Z,11.40
2017-11-15T10:35:06.150Z,11.20
2017-11-15T10:37:34.663Z,11.40
2017-11-15T10:40:02.877Z,11.40
2017-11-15T10:42:31.004Z,11.30
2017-11-15T10:44:59.123Z,11.40
2017-11-15T10:47:27.233Z,11.50
2017-11-15T10:49:55.322Z,11.50
2017-11-15T10:52:23.415Z,11.60
2017-11-15T10:54:52.244Z,11.80
2017-11-15T10:57:20.363Z,11.80
2017-11-15T10:59:48.515Z,11.80
2017-11-15T11:02:16.663Z,11.70
2017-11-15T11:04:44.819Z,11.80
2017-11-15T11:07:12.958Z,11.70
2017-11-15T11:09:41.199Z,11.60
2017-11-15T11:12:09.345Z,11.60
2017-11-15T11:14:37.532Z,11.60
2017-11-15T11:17:05.720Z,11.80
2017-11-15T11:19:33.867Z,11.90
2017-11-15T11:22:02.547Z,11.90
2017-11-15T11:24:33.561Z,11.90
2017-11-15T11:27:01.711Z,11.90
2017-11-15T11:29:29.878Z,11.90
2017-11-15T11:31:58.035Z,11.90
2017-11-15T11:34:26.151Z,11.90
2017-11-15T11:36:54.284Z,11.80
2017-11-15T11:39:22.394Z,11.90
2017-11-15T11:41:50.502Z,11.90
2017-11-15T11:44:19.358Z,11.90
2017-11-15T11:46:47.834Z,12.00
2017-11-15T11:49:15.946Z,12.00
2017-11-15T11:51:44.820Z,12.10
2017-11-15T11:54:13.869Z,11.90
2017-11-15T11:56:42.403Z,11.90
2017-11-15T11:59:11.300Z,11.90
2017-11-15T12:01:40.167Z,11.90
2017-11-15T12:04:08.339Z,12.00
2017-11-15T12:06:37.238Z,12.00
2017-11-15T12:09:07.215Z,11.90
2017-11-15T12:11:35.343Z,11.90
2017-11-15T12:14:04.970Z,12.00
2017-11-15T12:16:33.091Z,12.10
2017-11-15T12:19:01.346Z,12.10
2017-11-15T12:21:29.623Z,12.00
2017-11-15T12:23:57.768Z,12.00
2017-11-15T12:26:25.887Z,11.90
2017-11-15T12:28:54.060Z,11.90
2017-11-15T12:31:22.241Z,12.00
2017-11-15T12:33:50.843Z,12.00
2017-11-15T12:36:18.984Z,12.10
2017-11-15T12:38:47.110Z,12.10
2017-11-15T12:41:15.247Z,12.10
2017-11-15T12:43:43.411Z,12.10
2017-11-15T12:46:11.583Z,12.10
2017-11-15T12:48:39.788Z,12.10
2017-11-15T12:51:07.943Z,12.10
2017-11-15T12:53:36.211Z,12.00
2017-11-15T12:56:04.611Z,12.00
2017-11-15T12:58:33.399Z,12.00
2017-11-15T13:01:01.917Z,11.90
2017-11-15T13:03:30.027Z,12.00
2017-11-15T13:05:58.135Z,11.90
2017-11-15T13:08:26.275Z,11.80
2017-11-15T13:10:54.440Z,11.80
2017-11-15T13:13:22.566Z,11.70
2017-11-15T13:15:51.515Z,11.70
2017-11-15T13:18:19.679Z,11.80
2017-11-15T13:20:47.953Z,11.90
2017-11-15T13:23:16.134Z,11.90
2017-11-15T13:25:44.778Z,11.80
2017-11-15T13:28:13.679Z,11.80
2017-11-15T13:30:41.848Z,11.80
2017-11-15T13:33:09.987Z,11.80
2017-11-15T13:35:38.171Z,11.70
2017-11-15T13:38:06.299Z,11.70
2017-11-15T13:40:34.447Z,11.70
2017-11-15T13:43:02.660Z,11.70
2017-11-15T13:45:30.810Z,11.70
2017-11-15T13:47:58.998Z,11.70
2017-11-15T13:50:27.571Z,11.60
2017-11-15T13:52:55.715Z,11.70
2017-11-15T13:55:24.322Z,11.70
2017-11-15T13:57:52.447Z,11.60
2017-11-15T14:00:21.223Z,11.60
2017-11-15T14:02:49.363Z,11.60
2017-11-15T14:05:17.475Z,11.70
2017-11-15T14:07:45.616Z,11.70
2017-11-15T14:10:13.756Z,11.70
2017-11-15T14:12:42.619Z,11.70
2017-11-15T14:15:11.123Z,11.80
2017-11-15T14:17:39.986Z,11.80
2017-11-15T14:20:08.131Z,11.90
2017-11-15T14:22:36.507Z,12.00
2017-11-15T14:25:04.686Z,12.00
2017-11-15T14:27:32.816Z,12.00
2017-11-15T14:30:00.945Z,12.00
2017-11-15T14:32:29.071Z,11.90
2017-11-15T14:34:57.208Z,11.90
2017-11-15T14:37:26.831Z,11.90
2017-11-15T14:39:56.123Z,11.90
2017-11-15T14:42:24.324Z,11.90
2017-11-15T14:44:52.439Z,11.90
2017-11-15T14:47:20.551Z,11.80
2017-11-15T14:49:49.399Z,11.80
2017-11-15T14:52:17.520Z,11.70
2017-11-15T14:54:46.368Z,11.70
2017-11-15T14:57:14.514Z,11.70
2017-11-15T14:59:42.654Z,11.70
2017-11-15T15:02:11.231Z,11.70
2017-11-15T15:04:39.796Z,11.60
2017-11-15T15:07:07.926Z,11.60
2017-11-15T15:09:36.063Z,11.50
2017-11-15T15:12:04.982Z,11.60
2017-11-15T15:14:33.107Z,11.50
2017-11-15T15:17:01.227Z,11.50
2017-11-15T15:19:29.332Z,11.50
2017-11-15T15:21:57.747Z,11.60
2017-11-15T15:24:26.631Z,11.50
2017-11-15T15:26:54.750Z,11.50
2017-11-15T15:29:22.923Z,11.50
2017-11-15T15:31:51.371Z,11.40
2017-11-15T15:34:19.508Z,11.50
2017-11-15T15:36:47.650Z,11.50
2017-11-15T15:39:15.755Z,11.40
2017-11-15T15:41:43.887Z,11.40
2017-11-15T15:44:12.008Z,11.40
2017-11-15T15:46:40.135Z,11.40
2017-11-15T15:49:08.272Z,11.40
2017-11-15T15:51:36.712Z,11.40
2017-11-15T15:54:04.851Z,11.40
2017-11-15T15:56:34.171Z,11.30
2017-11-15T15:59:02.291Z,11.40
2017-11-15T16:01:30.427Z,11.30
2017-11-15T16:03:58.944Z,11.30
2017-11-15T16:06:27.135Z,11.30
2017-11-15T16:08:55.987Z,11.30
2017-11-15T16:11:24.126Z,11.30
2017-11-15T16:13:52.219Z,11.30
2017-11-15T16:16:20.438Z,11.30
2017-11-15T16:18:48.755Z,11.20
2017-11-15T16:21:17.324Z,11.20
2017-11-15T16:23:46.191Z,11.20
2017-11-15T16:26:14.343Z,11.20
2017-11-15T16:28:42.460Z,11.20
2017-11-15T16:31:10.567Z,11.20
2017-11-15T16:33:38.717Z,11.20
2017-11-15T16:36:07.603Z,11.20
2017-11-15T16:38:36.460Z,11.20
2017-11-15T16:41:04.905Z,11.20
2017-11-15T16:43:33.044Z,11.20
2017-11-15T16:46:02.341Z,11.20
2017-11-15T16:48:31.202Z,11.10
2017-11-15T16:50:59.351Z,11.00
2017-11-15T16:53:27.466Z,11.00
2017-11-15T16:55:55.578Z,11.00
2017-11-15T16:58:23.697Z,11.00
2017-11-15T17:00:52.207Z,11.00
2017-11-15T17:03:21.094Z,11.00
2017-11-15T17:05:50.367Z,10.90
2017-11-15T17:08:18.491Z,11.00
2017-11-15T17:10:46.607Z,10.90
2017-11-15T17:13:14.735Z,11.00
2017-11-15T17:15:43.302Z,11.00
2017-11-15T17:18:12.222Z,11.00
2017-11-15T17:20:40.348Z,11.00
2017-11-15T17:23:08.492Z,11.00
2017-11-15T17:25:36.606Z,11.00
2017-11-15T17:28:06.097Z,11.10
2017-11-15T17:30:34.272Z,11.00
2017-11-15T17:33:02.414Z,11.10
2017-11-15T17:35:30.556Z,11.00
2017-11-15T17:37:58.671Z,11.00
2017-11-15T17:40:26.794Z,11.00
2017-11-15T17:42:54.964Z,11.00
2017-11-15T17:45:24.078Z,11.00
2017-11-15T17:47:52.291Z,11.00
2017-11-15T17:50:20.583Z,10.90
2017-11-15T17:52:49.174Z,10.90
2017-11-15T17:55:17.312Z,11.00
2017-11-15T17:57:45.927Z,11.00
2017-11-15T18:00:14.079Z,11.00
2017-11-15T18:02:42.211Z,10.90
2017-11-15T18:05:10.351Z,10.90
2017-11-15T18:07:38.981Z,10.90
2017-11-15T18:10:07.099Z,10.90
2017-11-15T18:12:36.719Z,10.90
2017-11-15T18:15:04.908Z,10.80
2017-11-15T18:17:33.183Z,10.80
2017-11-15T18:20:01.344Z,10.70
2017-11-15T18:22:29.474Z,10.70
2017-11-15T18:24:57.634Z,10.70
2017-11-15T18:27:25.771Z,10.80
2017-11-15T18:29:53.926Z,10.20
2017-11-15T18:32:22.051Z,10.80
2017-11-15T18:34:50.631Z,10.80
2017-11-15T18:37:18.791Z,10.70
2017-11-15T18:39:46.947Z,10.80
2017-11-15T18:42:15.106Z,10.80
2017-11-15T18:44:43.248Z,10.80
2017-11-15T18:47:11.639Z,10.80
2017-11-15T18:49:39.963Z,10.70
2017-11-15T18:52:08.134Z,10.70
2017-11-15T18:54:37.435Z,10.80
2017-11-15T18:57:06.312Z,10.70
2017-11-15T18:59:34.435Z,10.70
2017-11-15T19:02:02.575Z,10.50
2017-11-15T19:04:30.743Z,10.60
2017-11-15T19:06:59.227Z,10.70
2017-11-15T19:09:28.499Z,10.70
2017-11-15T19:11:56.627Z,10.70
2017-11-15T19:14:24.763Z,10.70
2017-11-15T19:16:54.395Z,10.80
2017-11-15T19:19:23.619Z,10.70
2017-11-15T19:21:51.799Z,10.70
2017-11-15T19:24:19.955Z,10.80
2017-11-15T19:26:48.087Z,10.80
2017-11-15T19:29:16.231Z,10.80
2017-11-15T19:31:44.698Z,10.80
2017-11-15T19:34:12.847Z,10.80
2017-11-15T19:36:40.991Z,10.70
2017-11-15T19:39:09.641Z,10.70
2017-11-15T19:41:37.771Z,10.70
2017-11-15T19:44:05.979Z,10.70
2017-11-15T19:46:34.136Z,10.60
2017-11-15T19:49:02.275Z,10.60
2017-11-15T19:51:30.723Z,10.70
2017-11-15T19:53:58.896Z,10.70
2017-11-15T19:56:27.051Z,10.70
2017-11-15T19:58:55.215Z,10.70
2017-11-15T20:01:23.355Z,10.70
2017-11-15T20:03:52.410Z,10.70
2017-11-15T20:06:20.531Z,10.70
2017-11-15T20:08:49.431Z,10.70
2017-11-15T20:11:18.610Z,10.70
2017-11-15T20:13:46.746Z,10.70
2017-11-15T20:16:15.302Z,10.60
2017-11-15T20:18:43.445Z,10.70
2017-11-15T20:21:11.574Z,10.70
2017-11-15T20:23:39.719Z,10.70
2017-11-15T20:26:07.861Z,10.60
2017-11-15T20:28:36.031Z,10.60
2017-11-15T20:31:04.242Z,10.60
2017-11-15T20:33:32.389Z,10.60
2017-11-15T20:36:00.516Z,10.70
2017-11-15T20:38:29.012Z,10.60
2017-11-15T20:40:57.167Z,10.60
2017-11-15T20:43:25.317Z,10.60
2017-11-15T20:45:53.521Z,10.60
2017-11-15T20:48:21.692Z,10.70
2017-11-15T20:50:49.836Z,10.60
2017-11-15T20:53:17.979Z,10.60
2017-11-15T20:55:46.110Z,10.60
2017-11-15T20:58:14.256Z,10.40
2017-11-15T21:00:42.885Z,10.40
2017-11-15T21:03:11.084Z,10.40
2017-11-15T21:05:39.227Z,10.40
2017-11-15T21:08:07.397Z,10.40
2017-11-15T21:10:36.348Z,10.40
2017-11-15T21:13:05.240Z,10.50
2017-11-15T21:15:34.127Z,10.50
2017-11-15T21:18:02.983Z,10.50
2017-11-15T21:20:31.120Z,10.30
2017-11-15T21:22:59.271Z,10.30
2017-11-15T21:25:27.883Z,10.30
2017-11-15T21:27:56.031Z,10.20
2017-11-15T21:30:24.168Z,10.10
2017-11-15T21:32:52.295Z,10.10
2017-11-15T21:35:20.399Z,10.10
2017-11-15T21:37:48.532Z,10.20
2017-11-15T21:40:16.643Z,10.10
2017-11-15T21:42:44.801Z,10.10
2017-11-15T21:45:12.937Z,10.10
2017-11-15T21:47:41.512Z,10.10
2017-11-15T21:50:10.370Z,10.10
2017-11-15T21:52:38.848Z,10.00
2017-11-15T21:55:06.994Z,10.00
2017-11-15T21:57:35.127Z,9.90
2017-11-15T22:00:03.335Z,9.80
2017-11-15T22:02:31.486Z,9.80
2017-11-15T22:04:59.636Z,9.70
2017-11-15T22:07:27.754Z,9.70
2017-11-15T22:09:56.002Z,9.70
2017-11-15T22:12:25.294Z,9.60
2017-11-15T22:14:53.434Z,9.60
2017-11-15T22:17:21.551Z,9.50
2017-11-15T22:19:49.678Z,9.40
2017-11-15T22:22:17.804Z,9.40
2017-11-15T22:24:46.670Z,9.40
2017-11-15T22:27:14.815Z,9.40
2017-11-15T22:29:42.988Z,9.40
2017-11-15T22:32:11.514Z,9.50
2017-11-15T22:34:39.646Z,9.40
2017-11-15T22:37:07.807Z,9.50
2017-11-15T22:39:36.676Z,9.40
2017-11-15T22:42:04.810Z,9.40
2017-11-15T22:44:32.949Z,9.40
2017-11-15T22:47:01.066Z,9.30
2017-11-15T22:49:29.951Z,9.30
2017-11-15T22:51:59.875Z,9.30
2017-11-15T22:54:28.023Z,9.30
2017-11-15T22:56:56.156Z,9.20
2017-11-15T22:59:24.275Z,9.20
2017-11-15T23:01:52.424Z,9.20
2017-11-15T23:04:20.775Z,9.10
2017-11-15T23:06:48.979Z,9.20
2017-11-15T23:09:17.367Z,9.30
2017-11-15T23:11:45.499Z,9.30
2017-11-15T23:14:15.050Z,9.40
2017-11-15T23:16:43.586Z,9.50
2017-11-15T23:19:11.731Z,9.60
2017-11-15T23:21:39.851Z,9.50
2017-11-15T23:24:07.999Z,9.60
2017-11-15T23:26:36.137Z,9.50
2017-11-15T23:29:04.254Z,9.60
2017-11-15T23:31:32.379Z,9.60
2017-11-15T23:34:00.548Z,9.70
2017-11-15T23:36:28.670Z,9.70
2017-11-15T23:38:56.770Z,9.70
2017-11-15T23:41:25.202Z,9.80
2017-11-15T23:43:53.798Z,9.80
2017-11-15T23:46:22.651Z,9.80
2017-11-15T23:48:50.787Z,9.90
2017-11-15T23:51:18.895Z,10.00
2017-11-15T23:53:47.019Z,10.00
2017-11-15T23:56:15.143Z,10.10
2017-11-15T23:58:43.271Z,10.10
